Championnats de Nationale 2 d'été

Compétition Interrégionale

GRAND-COURONNE

Du Vendredi 08 Juillet 2016 au Dimanche 10 Juillet 2016

Bassin de 50m

50 Nage Libre Dames

Finale A

Nom Année Temps Pts Club Pays
1 LEBRET Delphine 1998 0:27:72 1197 AS AVRILLÉ NATATION FRA
2 DELHAYE Morgane 1998 0:27:75 1195 C VIKINGS DE ROUEN FRA
3 VILLON Nihèle 2000 0:27:92 1184 EN CAEN FRA
4 DENIEUL Catinca 2002 0:28:07 1174 C PAUL-BERT RENNES FRA
5 MONNET Anais 1999 0:28:26 1161 ASPTT ORLÉANS FRA
6 TRECUL Anaïs 2000 0:28:32 1157 ALLIANCE ORLEANS NATATION FRA
7 WOIRIN Solenn 2001 0:28:44 1150 CN BREST FRA
8 AUBARD Ambrine 2001 0:28:45 1149 ASN BONNEVAL FRA

Finale B

Nom Année Temps Pts Club Pays
1 LEROY Flavy 1996 0:27:71 1197 C VIKINGS DE ROUEN FRA
2 BERSOT Lucie 1999 0:28:22 1164 C REDON NATATION FRA
3 BOHN Johanne 2002 0:28:31 1158 NANTES NATATION FRA
4 POUPLIN Noemie 2000 0:28:44 1150 ECN CHARTRES-DE-BRETAGNE FRA
5 BOUCHEZ Zoé 2001 0:28:54 1143 C VIKINGS DE ROUEN FRA
6 SELLIN Agathe 2001 0:28:68 1134 CN CONCARNEAU FRA
7 THERIN Emeline 2002 0:29:15 1104 EN CAEN FRA
8 LAROUR Jeanne 2002 0:29:20 1101 ST-NAZAIRE ATLANTIQUE NATATION FRA

Finale C

Nom Année Temps Pts Club Pays
1 BOUINIERE Valériane 2001 0:28:32 1157 AS AVRILLÉ NATATION FRA
2 GEORGES Sarah 2001 0:28:72 1132 CLUB DES NAGEURS BALGENTIENS FRA
3 FERRON Berangere 2002 0:28:72 1132 NAUTIC CLUB VOVES FRA
4 HELDENBERGH Emma 2002 0:28:80 1126 AURAY NATATION FRA
5 LE LAN Servane 2001 0:28:94 1118 CHARTRES METROPOLE NAT FRA
6 DUMONT Lena 2001 0:29:01 1113 C.N DE VALLEE DE SEINE FRA
7 VANDEWEGHE Manon 2001 0:29:14 1105 CHALLANS NATATION FRA
8 LEMONNIER-MURARI Emma 2001 0:29:18 1102 OCTEVILLE NATATION FRA

Séries

Nom Année Temps Pts Club Pays
1 DELHAYE Morgane 1998 0:28:10 1172 C VIKINGS DE ROUEN FRA
2 DENIEUL Catinca 2002 0:28:16 1168 C PAUL-BERT RENNES FRA
3 LEBRET Delphine 1998 0:28:19 1166 AS AVRILLÉ NATATION FRA
4 BOUREAU Marine 2000 0:28:20 1165 SAINT HERBLAIN NATATION FRA
5 MONNET Anais 1999 0:28:48 1147 ASPTT ORLÉANS FRA
6 VILLON Nihèle 2000 0:28:50 1146 EN CAEN FRA
7 AUBARD Ambrine 2001 0:28:51 1145 ASN BONNEVAL FRA
8 WOIRIN Solenn 2001 0:28:53 1144 CN BREST FRA
9 TRECUL Anaïs 2000 0:28:54 1143 ALLIANCE ORLEANS NATATION FRA
10 BERSOT Lucie 1999 0:28:58 1141 C REDON NATATION FRA
11 LEROY Flavy 1996 0:28:62 1138 C VIKINGS DE ROUEN FRA
12 POUPLIN Noemie 2000 0:28:72 1132 ECN CHARTRES-DE-BRETAGNE FRA
13 SELLIN Agathe 2001 0:28:73 1131 CN CONCARNEAU FRA
14 BOUCHEZ Zoé 2001 0:28:87 1122 C VIKINGS DE ROUEN FRA
15 BOHN Johanne 2002 0:28:89 1121 NANTES NATATION FRA
16 LAROUR Jeanne 2002 0:28:92 1119 ST-NAZAIRE ATLANTIQUE NATATION FRA
17 THERIN Emeline 2002 0:28:93 1118 EN CAEN FRA
18 NUNES Nolwenn 2000 0:29:00 1114 UNION QUIMPER NATATION FRA
19 LETELLIER Léa 1999 0:29:01 1113 OLYMPIQUE ARGENTAN FRA
20 HELDENBERGH Emma 2002 0:29:05 1111 AURAY NATATION FRA
21 BOUINIERE Valériane 2001 0:29:06 1110 AS AVRILLÉ NATATION FRA
22 MOREAU Clémence 1996 0:29:08 1109 CLUB DAUPHINS LE BLANC FRA
23 DUMONT Lena 2001 0:29:09 1108 C.N DE VALLEE DE SEINE FRA
24 FEAT Nolwenn 1999 0:29:10 1107 ECN CHARTRES-DE-BRETAGNE FRA
25 ARDERIU Servane 2000 0:29:12 1106 CN FONTENAY-LE-COMTE FRA
26 CHEFDOR Anne-Louise 1999 0:29:14 1105 UN PLOËRMEL FRA
27 VO THANH Lisa 1998 0:29:15 1104 CN LE MANS FRA
28 DAUVIN Pauline 2000 0:29:18 1102 CN COUTANCES FRA
29 FERRON Berangere 2002 0:29:19 1102 NAUTIC CLUB VOVES FRA
30 PASSELANDE Audrey 2000 0:29:21 1100 ES SEGRÉ FRA
31 VERGER Anaïs 2000 0:29:22 1100 C PAUL-BERT RENNES FRA
32 VIGET Leïla 2000 0:29:24 1099 ANGERS NATATION FRA
33 LACROIX Lou 1999 0:29:26 1097 ALLIANCE ORLEANS NATATION FRA
34 LE LAN Servane 2001 0:29:28 1096 CHARTRES METROPOLE NAT FRA
35 DUPONT Caroline 2000 0:29:31 1094 CN LE MANS FRA
36 BOURDELAS Liz 2000 0:29:31 1094 CHARTRES METROPOLE NAT FRA
37 MENEC Klervi 1999 0:29:31 1094 DINAN NATATION SAUVETAGE FRA
38 VANDEWEGHE Manon 2001 0:29:32 1093 CHALLANS NATATION FRA
39 GEORGES Sarah 2001 0:29:33 1093 CLUB DES NAGEURS BALGENTIENS FRA
40 LEMONNIER-MURARI Emma 2001 0:29:35 1092 OCTEVILLE NATATION FRA
41 BRISARD Oceane 1998 0:29:35 1092 ALENÇON NC FRA
42 ROBILLARD Claire 2000 0:29:41 1088 OCTEVILLE NATATION FRA
43 BABARIT Manelle 2002 0:29:47 1084 CLUB AQUATIQUE CHOLETAIS FRA
44 CHEVREUX Mathilde 2000 0:29:49 1083 CN LE MANS FRA
45 LEGENDRE Aubane 2002 0:29:50 1082 CNM DIEPPE FRA
46 GILBERT Lucie 2001 0:29:54 1080 ECN CHARTRES-DE-BRETAGNE FRA
47 LEVANIC Mailys 2001 0:29:61 1075 LORIENT NATATION FRA
48 NOIROT Axelle 2001 0:29:62 1075 USC D LA CHAPELLE-ST-MESMIN FRA
49 MALLET Marine 2000 0:29:64 1073 CA EVRON FRA
50 BERTRAND Léa 2000 0:29:64 1073 SAUMUR NATATION FRA
51 LORANS Inès 2001 0:29:66 1072 EN TOURS FRA
52 JANER Clémence 2001 0:29:70 1070 JOUÉ NATATION FRA
53 TROCHET Annagwen 2000 0:29:80 1063 C REDON NATATION FRA
54 SALES Alexandra 1999 0:29:84 1061 UN PLOËRMEL FRA
55 GALLANT Félicie 2002 0:29:88 1058 LA ROCHE-SUR-YON NATATION FRA
56 RICHOUX Sophie 2001 0:29:89 1058 VIERZON NATATION FRA
57 CHADEBAUD Mathilde 2002 0:29:90 1057 US ETREPAGNY FRA
58 CUINIER Celia 2001 0:29:91 1057 US VENDÔME FRA
59 PY Valentine 2001 0:29:92 1056 CNM DIEPPE FRA
60 BLOSSEVILLE Violaine 2000 0:29:92 1056 STADE ST-VALERY NATATION FRA
61 LEPOITTEVIN Zoe 2002 0:29:93 1055 CN LE MANS FRA
62 CHAMPAGNE Marie 2000 0:29:93 1055 CHARTRES METROPOLE NAT FRA
63 CALBRIS Eloise 2002 0:29:98 1052 MARSOUINS HÉROUVILLE FRA
64 PECH Meggane 2002 0:29:99 1052 CN BREST FRA
65 LE BORGNE Pauline 2002 0:30:00 1051 DAUPHINS ELORN LANDERNEAU FRA
66 BRUNET Claire 1999 0:30:00 1051 CN LE MANS FRA
67 BREDIF Claire 2001 0:30:04 1049 JOUÉ NATATION FRA
68 LECLERC Laura 1999 0:30:11 1044 CA EVRON FRA
69 PORET Camille 2002 0:30:13 1043 UN PLOËRMEL FRA
70 CAMUS Laure 2001 0:30:13 1043 CERCLE DES NAGEURS SITTELIA FRA
71 VAIDIE Jade 2001 0:30:14 1042 ANGERS NATATION FRA
72 HEAUME Hélène 1999 0:30:18 1040 ESPADON GRAND-QUEVILLY FRA
73 KWASNIK Meghan 1999 0:30:21 1038 ALLONNES JEUNESSE SPORTIVE FRA
74 MARTIN Manon 2002 0:30:25 1036 LA ROCHE-SUR-YON NATATION FRA
75 BUNEL Morgane 2002 0:30:31 1032 U.S LIFFREENNE NATATION FRA
76 DOLMETTA Victoria 2002 0:30:31 1032 LORIENT NATATION FRA
77 LEFFRAY Clarisse 2002 0:30:32 1031 ST-MALO NATATION FRA
78 COOLENS Cassy 2002 0:30:32 1031 VSF LA FERTÉ-BERNARD FRA
79 QUESTON Eloise 2002 0:30:33 1031 CJF FLEURY-LES-AUBRAIS FRA
80 MALFER Daïka 2001 0:30:35 1029 LORIENT NATATION FRA
81 COTINEAU Gaby 2001 0:30:41 1026 A.S GOURNAISIENNE FRA
82 ROZUEL Claire 2001 0:30:41 1026 CN BREST FRA
83 LEBRETON Anais 1999 0:30:42 1025 COMBOURG NATATION FRA
84 CROCHEZ Alyssia 2001 0:30:46 1023 C VIKINGS DE ROUEN FRA
85 PINATON Maud 2002 0:30:50 1020 LA NAT'SUZERAINE FRA
86 BERNA--SEYFRITZ Clémence 2002 0:30:60 1014 CLUB DAUPHINS LE BLANC FRA
87 CHARLOT Cécile 2002 0:30:68 1009 OLYMPIQUE ARGENTAN FRA
88 LE GUEN Juliette 1999 0:30:68 1009 DAUPHINS ELORN LANDERNEAU FRA
89 DAVID Maëlle 2000 0:30:70 1008 JOUÉ NATATION FRA
90 GAIGNON Léna 2001 0:30:86 999 CN FOUGÈRES FRA
91 THOMAS Doriane 2001 0:31:09 985 PLOEMEUR NATATION FRA
92 GODDÉ Romane 2000 0:31:25 975 CN AVRANCHES FRA
93 BOBIN Yelena 2002 0:31:26 975 CN LE HAVRE FRA
94 GAZE Julie 2000 0:31:26 975 C VIKINGS DE ROUEN FRA
95 LEROUX Ninon 2002 0:31:27 974 CNP DE SAINT-LO FRA
96 DUBOS Chloé 2001 0:31:39 967 SC BERNAY NATATION FRA
97 TROTTE Lou-Anne 2002 0:31:54 958 CN LE MANS FRA
98 CHAMPION Flavie 2001 0:31:55 957 BAYEUX OLYMPIQUE NATATION FRA
99 MHUN Lena 2001 0:31:92 936 ECN CHARTRES-DE-BRETAGNE FRA
SAUMUR NATATION